sensor_id;sensor_type;location;lat;lon;timestamp;P1;durP1;ratioP1;P2;durP2;ratioP2
7340;SDS011;6870;50.944;6.932;2022-08-19T00:01:55;7.47;;;5.00;;
7340;SDS011;6870;50.944;6.932;2022-08-19T00:04:26;6.33;;;5.13;;
7340;SDS011;6870;50.944;6.932;2022-08-19T00:06:59;7.40;;;5.67;;
7340;SDS011;6870;50.944;6.932;2022-08-19T00:09:27;7.77;;;5.73;;
7340;SDS011;6870;50.944;6.932;2022-08-19T00:11:56;9.87;;;6.00;;
7340;SDS011;6870;50.944;6.932;2022-08-19T00:14:27;8.10;;;5.20;;
7340;SDS011;6870;50.944;6.932;2022-08-19T00:16:58;6.13;;;5.17;;
7340;SDS011;6870;50.944;6.932;2022-08-19T00:19:28;5.80;;;5.33;;
7340;SDS011;6870;50.944;6.932;2022-08-19T00:21:56;7.93;;;5.07;;
7340;SDS011;6870;50.944;6.932;2022-08-19T00:24:25;6.10;;;5.33;;
7340;SDS011;6870;50.944;6.932;2022-08-19T00:26:55;6.80;;;5.53;;
7340;SDS011;6870;50.944;6.932;2022-08-19T00:29:45;5.90;;;5.40;;
7340;SDS011;6870;50.944;6.932;2022-08-19T00:32:17;6.97;;;5.67;;
7340;SDS011;6870;50.944;6.932;2022-08-19T00:34:47;7.27;;;5.73;;
7340;SDS011;6870;50.944;6.932;2022-08-19T00:37:15;7.03;;;5.13;;
7340;SDS011;6870;50.944;6.932;2022-08-19T00:39:43;6.40;;;5.30;;
7340;SDS011;6870;50.944;6.932;2022-08-19T00:42:14;7.03;;;5.47;;
7340;SDS011;6870;50.944;6.932;2022-08-19T00:44:43;5.20;;;4.43;;
7340;SDS011;6870;50.944;6.932;2022-08-19T00:47:13;7.67;;;5.77;;
7340;SDS011;6870;50.944;6.932;2022-08-19T00:49:43;6.47;;;5.87;;
7340;SDS011;6870;50.944;6.932;2022-08-19T00:52:18;7.23;;;4.60;;
7340;SDS011;6870;50.944;6.932;2022-08-19T00:54:51;9.03;;;4.43;;
7340;SDS011;6870;50.944;6.932;2022-08-19T00:57:21;5.60;;;5.00;;
7340;SDS011;6870;50.944;6.932;2022-08-19T00:59:54;5.47;;;4.97;;
7340;SDS011;6870;50.944;6.932;2022-08-19T01:02:30;9.83;;;5.53;;
7340;SDS011;6870;50.944;6.932;2022-08-19T01:05:00;6.80;;;4.73;;
7340;SDS011;6870;50.944;6.932;2022-08-19T01:07:33;5.33;;;4.83;;
7340;SDS011;6870;50.944;6.932;2022-08-19T01:10:04;6.57;;;5.60;;
7340;SDS011;6870;50.944;6.932;2022-08-19T01:12:36;5.20;;;4.70;;
7340;SDS011;6870;50.944;6.932;2022-08-19T01:15:07;5.67;;;5.27;;
7340;SDS011;6870;50.944;6.932;2022-08-19T01:17:40;5.60;;;5.03;;
7340;SDS011;6870;50.944;6.932;2022-08-19T01:20:10;5.97;;;5.13;;
7340;SDS011;6870;50.944;6.932;2022-08-19T01:22:45;4.83;;;4.43;;
7340;SDS011;6870;50.944;6.932;2022-08-19T01:25:16;6.37;;;5.50;;
7340;SDS011;6870;50.944;6.932;2022-08-19T01:27:50;8.00;;;4.40;;
7340;SDS011;6870;50.944;6.932;2022-08-19T01:30:21;5.20;;;4.70;;
7340;SDS011;6870;50.944;6.932;2022-08-19T01:32:53;5.50;;;4.70;;
7340;SDS011;6870;50.944;6.932;2022-08-19T01:35:23;7.93;;;5.53;;
7340;SDS011;6870;50.944;6.932;2022-08-19T01:37:55;11.87;;;4.77;;
7340;SDS011;6870;50.944;6.932;2022-08-19T01:40:26;11.33;;;5.03;;
7340;SDS011;6870;50.944;6.932;2022-08-19T01:42:59;7.70;;;5.10;;
7340;SDS011;6870;50.944;6.932;2022-08-19T01:45:30;5.60;;;4.90;;
7340;SDS011;6870;50.944;6.932;2022-08-19T01:48:00;5.53;;;4.60;;
7340;SDS011;6870;50.944;6.932;2022-08-19T01:50:30;12.23;;;6.00;;
7340;SDS011;6870;50.944;6.932;2022-08-19T01:53:02;6.10;;;5.50;;
7340;SDS011;6870;50.944;6.932;2022-08-19T01:55:36;5.63;;;4.67;;
7340;SDS011;6870;50.944;6.932;2022-08-19T01:58:08;6.30;;;5.50;;
7340;SDS011;6870;50.944;6.932;2022-08-19T02:00:43;5.47;;;4.80;;
7340;SDS011;6870;50.944;6.932;2022-08-19T02:03:12;5.40;;;4.80;;
7340;SDS011;6870;50.944;6.932;2022-08-19T02:05:40;5.43;;;4.57;;
7340;SDS011;6870;50.944;6.932;2022-08-19T02:08:11;8.00;;;5.57;;
7340;SDS011;6870;50.944;6.932;2022-08-19T02:10:40;7.07;;;5.07;;
7340;SDS011;6870;50.944;6.932;2022-08-19T02:13:10;8.37;;;4.90;;
7340;SDS011;6870;50.944;6.932;2022-08-19T02:15:40;6.70;;;5.10;;
7340;SDS011;6870;50.944;6.932;2022-08-19T02:18:09;6.80;;;4.87;;
7340;SDS011;6870;50.944;6.932;2022-08-19T02:20:38;6.80;;;4.80;;
7340;SDS011;6870;50.944;6.932;2022-08-19T02:23:08;5.00;;;4.50;;
7340;SDS011;6870;50.944;6.932;2022-08-19T02:25:42;6.83;;;5.47;;
7340;SDS011;6870;50.944;6.932;2022-08-19T02:28:12;6.27;;;4.70;;
7340;SDS011;6870;50.944;6.932;2022-08-19T02:30:44;5.93;;;5.33;;
7340;SDS011;6870;50.944;6.932;2022-08-19T02:33:14;5.40;;;4.63;;
7340;SDS011;6870;50.944;6.932;2022-08-19T02:35:44;5.17;;;4.70;;
7340;SDS011;6870;50.944;6.932;2022-08-19T02:38:15;5.87;;;4.30;;
7340;SDS011;6870;50.944;6.932;2022-08-19T02:40:55;7.50;;;5.00;;
7340;SDS011;6870;50.944;6.932;2022-08-19T02:43:27;6.90;;;4.67;;
7340;SDS011;6870;50.944;6.932;2022-08-19T02:46:00;4.80;;;4.30;;
7340;SDS011;6870;50.944;6.932;2022-08-19T02:48:28;5.47;;;4.40;;
7340;SDS011;6870;50.944;6.932;2022-08-19T02:50:59;6.47;;;4.20;;
7340;SDS011;6870;50.944;6.932;2022-08-19T02:53:29;7.23;;;5.10;;
7340;SDS011;6870;50.944;6.932;2022-08-19T02:55:57;9.40;;;4.97;;
7340;SDS011;6870;50.944;6.932;2022-08-19T02:58:25;6.20;;;4.70;;
7340;SDS011;6870;50.944;6.932;2022-08-19T03:00:55;5.57;;;4.57;;
7340;SDS011;6870;50.944;6.932;2022-08-19T03:03:24;8.70;;;4.30;;
7340;SDS011;6870;50.944;6.932;2022-08-19T03:06:02;6.57;;;4.77;;
7340;SDS011;6870;50.944;6.932;2022-08-19T03:08:33;10.63;;;4.27;;
7340;SDS011;6870;50.944;6.932;2022-08-19T03:11:03;4.77;;;4.10;;
7340;SDS011;6870;50.944;6.932;2022-08-19T03:13:31;5.77;;;4.50;;
7340;SDS011;6870;50.944;6.932;2022-08-19T03:16:00;5.87;;;4.70;;
7340;SDS011;6870;50.944;6.932;2022-08-19T03:18:33;4.33;;;4.00;;
7340;SDS011;6870;50.944;6.932;2022-08-19T03:21:01;6.53;;;5.50;;
7340;SDS011;6870;50.944;6.932;2022-08-19T03:23:30;7.27;;;4.87;;
7340;SDS011;6870;50.944;6.932;2022-08-19T03:26:02;5.90;;;4.43;;
7340;SDS011;6870;50.944;6.932;2022-08-19T03:28:42;7.57;;;4.90;;
7340;SDS011;6870;50.944;6.932;2022-08-19T03:31:17;5.00;;;4.03;;
7340;SDS011;6870;50.944;6.932;2022-08-19T03:34:09;7.10;;;4.83;;
7340;SDS011;6870;50.944;6.932;2022-08-19T03:36:39;5.97;;;4.40;;
7340;SDS011;6870;50.944;6.932;2022-08-19T03:39:09;6.47;;;4.03;;
7340;SDS011;6870;50.944;6.932;2022-08-19T03:41:42;5.60;;;4.83;;
7340;SDS011;6870;50.944;6.932;2022-08-19T03:44:15;5.47;;;4.80;;
7340;SDS011;6870;50.944;6.932;2022-08-19T03:46:46;5.90;;;4.57;;
7340;SDS011;6870;50.944;6.932;2022-08-19T03:49:17;5.90;;;4.67;;
7340;SDS011;6870;50.944;6.932;2022-08-19T03:51:46;7.00;;;5.20;;
7340;SDS011;6870;50.944;6.932;2022-08-19T03:54:17;4.80;;;4.40;;
7340;SDS011;6870;50.944;6.932;2022-08-19T03:56:51;5.30;;;4.67;;
7340;SDS011;6870;50.944;6.932;2022-08-19T03:59:23;5.73;;;4.43;;
7340;SDS011;6870;50.944;6.932;2022-08-19T04:01:55;4.90;;;4.33;;
7340;SDS011;6870;50.944;6.932;2022-08-19T04:04:25;6.33;;;4.33;;
7340;SDS011;6870;50.944;6.932;2022-08-19T04:06:55;4.60;;;4.20;;
7340;SDS011;6870;50.944;6.932;2022-08-19T04:09:24;4.80;;;4.30;;
7340;SDS011;6870;50.944;6.932;2022-08-19T04:11:55;4.87;;;4.00;;
7340;SDS011;6870;50.944;6.932;2022-08-19T04:14:25;5.70;;;5.00;;
7340;SDS011;6870;50.944;6.932;2022-08-19T04:16:56;4.70;;;4.20;;
7340;SDS011;6870;50.944;6.932;2022-08-19T04:19:25;4.87;;;4.23;;
7340;SDS011;6870;50.944;6.932;2022-08-19T04:21:56;4.83;;;4.40;;
7340;SDS011;6870;50.944;6.932;2022-08-19T04:24:25;5.60;;;4.10;;
7340;SDS011;6870;50.944;6.932;2022-08-19T04:26:55;5.93;;;4.67;;
7340;SDS011;6870;50.944;6.932;2022-08-19T04:29:24;7.27;;;4.80;;
7340;SDS011;6870;50.944;6.932;2022-08-19T04:31:54;6.50;;;4.77;;
7340;SDS011;6870;50.944;6.932;2022-08-19T04:34:25;4.93;;;4.47;;
7340;SDS011;6870;50.944;6.932;2022-08-19T04:36:56;5.20;;;4.60;;
7340;SDS011;6870;50.944;6.932;2022-08-19T04:39:26;5.00;;;4.50;;
7340;SDS011;6870;50.944;6.932;2022-08-19T04:42:13;5.13;;;4.33;;
7340;SDS011;6870;50.944;6.932;2022-08-19T04:44:59;5.43;;;3.93;;
7340;SDS011;6870;50.944;6.932;2022-08-19T04:47:30;7.10;;;4.13;;
7340;SDS011;6870;50.944;6.932;2022-08-19T04:50:19;6.23;;;4.20;;
7340;SDS011;6870;50.944;6.932;2022-08-19T04:52:49;6.17;;;4.23;;
7340;SDS011;6870;50.944;6.932;2022-08-19T04:55:19;12.20;;;6.10;;
7340;SDS011;6870;50.944;6.932;2022-08-19T04:57:49;11.73;;;4.90;;
7340;SDS011;6870;50.944;6.932;2022-08-19T05:00:17;5.30;;;4.80;;
7340;SDS011;6870;50.944;6.932;2022-08-19T05:02:46;6.93;;;4.83;;
7340;SDS011;6870;50.944;6.932;2022-08-19T05:05:15;5.93;;;5.10;;
7340;SDS011;6870;50.944;6.932;2022-08-19T05:07:44;11.73;;;4.43;;
7340;SDS011;6870;50.944;6.932;2022-08-19T05:10:12;5.37;;;4.57;;
7340;SDS011;6870;50.944;6.932;2022-08-19T05:12:40;8.70;;;5.27;;
7340;SDS011;6870;50.944;6.932;2022-08-19T05:15:10;7.00;;;4.97;;
7340;SDS011;6870;50.944;6.932;2022-08-19T05:17:38;7.27;;;4.87;;
7340;SDS011;6870;50.944;6.932;2022-08-19T05:20:28;13.63;;;4.93;;
7340;SDS011;6870;50.944;6.932;2022-08-19T05:23:14;5.57;;;4.07;;
7340;SDS011;6870;50.944;6.932;2022-08-19T05:25:48;12.13;;;5.53;;
7340;SDS011;6870;50.944;6.932;2022-08-19T05:28:18;8.40;;;4.90;;
7340;SDS011;6870;50.944;6.932;2022-08-19T05:30:48;6.90;;;5.10;;
7340;SDS011;6870;50.944;6.932;2022-08-19T05:33:17;10.10;;;5.23;;
7340;SDS011;6870;50.944;6.932;2022-08-19T05:35:46;7.73;;;4.97;;
7340;SDS011;6870;50.944;6.932;2022-08-19T05:38:15;9.10;;;5.40;;
7340;SDS011;6870;50.944;6.932;2022-08-19T05:40:44;12.53;;;5.13;;
7340;SDS011;6870;50.944;6.932;2022-08-19T05:43:13;10.10;;;5.60;;
7340;SDS011;6870;50.944;6.932;2022-08-19T05:45:42;6.83;;;4.60;;
7340;SDS011;6870;50.944;6.932;2022-08-19T05:48:13;6.80;;;4.63;;
7340;SDS011;6870;50.944;6.932;2022-08-19T05:50:43;6.77;;;4.80;;
7340;SDS011;6870;50.944;6.932;2022-08-19T05:53:12;9.07;;;4.33;;
7340;SDS011;6870;50.944;6.932;2022-08-19T05:55:42;13.63;;;5.10;;
7340;SDS011;6870;50.944;6.932;2022-08-19T05:58:11;11.37;;;4.33;;
7340;SDS011;6870;50.944;6.932;2022-08-19T06:00:39;7.73;;;5.33;;
7340;SDS011;6870;50.944;6.932;2022-08-19T06:03:10;9.90;;;5.10;;
7340;SDS011;6870;50.944;6.932;2022-08-19T06:05:40;15.03;;;5.50;;
7340;SDS011;6870;50.944;6.932;2022-08-19T06:08:18;13.20;;;11.80;;
7340;SDS011;6870;50.944;6.932;2022-08-19T06:11:16;18.20;;;6.80;;
7340;SDS011;6870;50.944;6.932;2022-08-19T06:13:50;16.60;;;12.97;;
7340;SDS011;6870;50.944;6.932;2022-08-19T06:16:25;14.53;;;9.97;;
7340;SDS011;6870;50.944;6.932;2022-08-19T06:18:56;17.60;;;15.80;;
7340;SDS011;6870;50.944;6.932;2022-08-19T06:21:28;21.17;;;16.07;;
7340;SDS011;6870;50.944;6.932;2022-08-19T06:23:57;23.20;;;15.67;;
7340;SDS011;6870;50.944;6.932;2022-08-19T06:26:26;20.70;;;16.93;;
7340;SDS011;6870;50.944;6.932;2022-08-19T06:28:54;21.87;;;17.57;;
7340;SDS011;6870;50.944;6.932;2022-08-19T06:31:23;17.43;;;15.63;;
7340;SDS011;6870;50.944;6.932;2022-08-19T06:33:58;16.33;;;14.30;;
7340;SDS011;6870;50.944;6.932;2022-08-19T06:36:30;17.50;;;13.73;;
7340;SDS011;6870;50.944;6.932;2022-08-19T06:39:03;20.23;;;16.40;;
7340;SDS011;6870;50.944;6.932;2022-08-19T06:41:34;18.40;;;16.57;;
7340;SDS011;6870;50.944;6.932;2022-08-19T06:44:12;17.90;;;16.00;;
7340;SDS011;6870;50.944;6.932;2022-08-19T06:46:42;21.10;;;18.80;;
7340;SDS011;6870;50.944;6.932;2022-08-19T06:49:20;18.37;;;16.30;;
7340;SDS011;6870;50.944;6.932;2022-08-19T06:51:49;21.77;;;19.07;;
7340;SDS011;6870;50.944;6.932;2022-08-19T06:54:18;23.57;;;17.20;;
7340;SDS011;6870;50.944;6.932;2022-08-19T06:56:47;21.37;;;16.50;;
7340;SDS011;6870;50.944;6.932;2022-08-19T06:59:16;20.43;;;16.13;;
7340;SDS011;6870;50.944;6.932;2022-08-19T07:01:48;18.80;;;16.80;;
7340;SDS011;6870;50.944;6.932;2022-08-19T07:04:20;19.37;;;14.17;;
7340;SDS011;6870;50.944;6.932;2022-08-19T07:06:56;24.00;;;15.73;;
7340;SDS011;6870;50.944;6.932;2022-08-19T07:09:45;20.60;;;17.50;;
7340;SDS011;6870;50.944;6.932;2022-08-19T07:12:26;20.17;;;17.77;;
7340;SDS011;6870;50.944;6.932;2022-08-19T07:14:57;23.97;;;18.50;;
7340;SDS011;6870;50.944;6.932;2022-08-19T07:17:26;19.10;;;17.10;;
7340;SDS011;6870;50.944;6.932;2022-08-19T07:19:58;16.47;;;14.97;;
7340;SDS011;6870;50.944;6.932;2022-08-19T07:22:34;17.20;;;14.37;;
7340;SDS011;6870;50.944;6.932;2022-08-19T07:25:03;19.60;;;14.60;;
7340;SDS011;6870;50.944;6.932;2022-08-19T07:27:34;15.97;;;14.27;;
7340;SDS011;6870;50.944;6.932;2022-08-19T07:30:05;13.20;;;11.90;;
7340;SDS011;6870;50.944;6.932;2022-08-19T07:32:37;15.80;;;11.60;;
7340;SDS011;6870;50.944;6.932;2022-08-19T07:35:08;12.70;;;11.50;;
7340;SDS011;6870;50.944;6.932;2022-08-19T07:37:37;16.03;;;11.90;;
7340;SDS011;6870;50.944;6.932;2022-08-19T07:40:10;19.03;;;16.47;;
7340;SDS011;6870;50.944;6.932;2022-08-19T07:42:39;16.10;;;13.83;;
7340;SDS011;6870;50.944;6.932;2022-08-19T07:45:08;18.77;;;14.93;;
7340;SDS011;6870;50.944;6.932;2022-08-19T07:47:37;15.07;;;13.67;;
7340;SDS011;6870;50.944;6.932;2022-08-19T07:50:17;18.63;;;13.87;;
7340;SDS011;6870;50.944;6.932;2022-08-19T07:52:47;17.67;;;15.80;;
7340;SDS011;6870;50.944;6.932;2022-08-19T07:55:17;19.97;;;15.07;;
7340;SDS011;6870;50.944;6.932;2022-08-19T07:58:09;17.37;;;14.33;;
7340;SDS011;6870;50.944;6.932;2022-08-19T08:00:39;16.10;;;14.40;;
7340;SDS011;6870;50.944;6.932;2022-08-19T08:03:08;24.63;;;18.17;;
7340;SDS011;6870;50.944;6.932;2022-08-19T08:05:38;25.20;;;17.40;;
7340;SDS011;6870;50.944;6.932;2022-08-19T08:08:23;23.80;;;16.83;;
7340;SDS011;6870;50.944;6.932;2022-08-19T08:11:19;22.23;;;18.00;;
7340;SDS011;6870;50.944;6.932;2022-08-19T08:13:49;19.20;;;17.30;;
7340;SDS011;6870;50.944;6.932;2022-08-19T08:16:25;20.63;;;18.43;;
7340;SDS011;6870;50.944;6.932;2022-08-19T08:18:56;27.53;;;20.33;;
7340;SDS011;6870;50.944;6.932;2022-08-19T08:21:28;22.40;;;18.63;;
7340;SDS011;6870;50.944;6.932;2022-08-19T08:23:56;24.60;;;21.33;;
7340;SDS011;6870;50.944;6.932;2022-08-19T08:26:29;22.07;;;19.57;;
7340;SDS011;6870;50.944;6.932;2022-08-19T08:28:59;22.63;;;20.10;;
7340;SDS011;6870;50.944;6.932;2022-08-19T08:31:37;20.47;;;17.73;;
7340;SDS011;6870;50.944;6.932;2022-08-19T08:34:07;17.60;;;15.80;;
7340;SDS011;6870;50.944;6.932;2022-08-19T08:36:38;15.67;;;14.17;;
7340;SDS011;6870;50.944;6.932;2022-08-19T08:39:08;19.90;;;16.50;;
7340;SDS011;6870;50.944;6.932;2022-08-19T08:41:39;19.97;;;17.87;;
7340;SDS011;6870;50.944;6.932;2022-08-19T08:44:20;24.93;;;15.67;;
7340;SDS011;6870;50.944;6.932;2022-08-19T08:46:51;21.77;;;15.50;;
7340;SDS011;6870;50.944;6.932;2022-08-19T08:49:26;18.47;;;15.70;;
7340;SDS011;6870;50.944;6.932;2022-08-19T08:52:04;24.37;;;20.27;;
7340;SDS011;6870;50.944;6.932;2022-08-19T08:54:38;25.43;;;20.90;;
7340;SDS011;6870;50.944;6.932;2022-08-19T08:57:23;21.50;;;18.53;;
7340;SDS011;6870;50.944;6.932;2022-08-19T09:00:07;20.97;;;18.70;;
7340;SDS011;6870;50.944;6.932;2022-08-19T09:02:41;20.57;;;16.30;;
7340;SDS011;6870;50.944;6.932;2022-08-19T09:05:09;20.17;;;15.70;;
7340;SDS011;6870;50.944;6.932;2022-08-19T09:07:44;24.47;;;19.80;;
7340;SDS011;6870;50.944;6.932;2022-08-19T09:10:22;23.10;;;19.70;;
7340;SDS011;6870;50.944;6.932;2022-08-19T09:12:58;35.10;;;22.43;;
7340;SDS011;6870;50.944;6.932;2022-08-19T09:15:38;23.00;;;18.83;;
7340;SDS011;6870;50.944;6.932;2022-08-19T09:18:13;21.60;;;19.40;;
7340;SDS011;6870;50.944;6.932;2022-08-19T09:20:45;23.53;;;19.80;;
7340;SDS011;6870;50.944;6.932;2022-08-19T09:23:16;24.53;;;20.10;;
7340;SDS011;6870;50.944;6.932;2022-08-19T09:25:52;20.20;;;17.23;;
7340;SDS011;6870;50.944;6.932;2022-08-19T09:28:20;19.83;;;17.50;;
7340;SDS011;6870;50.944;6.932;2022-08-19T09:30:52;32.00;;;17.93;;
7340;SDS011;6870;50.944;6.932;2022-08-19T09:33:20;21.83;;;16.53;;
7340;SDS011;6870;50.944;6.932;2022-08-19T09:35:49;17.40;;;15.33;;
7340;SDS011;6870;50.944;6.932;2022-08-19T09:38:20;18.73;;;15.80;;
7340;SDS011;6870;50.944;6.932;2022-08-19T09:40:48;19.07;;;14.73;;
7340;SDS011;6870;50.944;6.932;2022-08-19T09:43:16;19.83;;;16.47;;
7340;SDS011;6870;50.944;6.932;2022-08-19T09:46:05;22.67;;;17.37;;
7340;SDS011;6870;50.944;6.932;2022-08-19T09:48:35;18.30;;;16.50;;
7340;SDS011;6870;50.944;6.932;2022-08-19T09:51:04;21.67;;;18.20;;
7340;SDS011;6870;50.944;6.932;2022-08-19T09:53:38;18.60;;;16.47;;
7340;SDS011;6870;50.944;6.932;2022-08-19T09:56:06;19.10;;;16.87;;
7340;SDS011;6870;50.944;6.932;2022-08-19T09:58:35;15.47;;;13.87;;
7340;SDS011;6870;50.944;6.932;2022-08-19T10:01:04;18.60;;;13.33;;
7340;SDS011;6870;50.944;6.932;2022-08-19T10:03:35;12.40;;;11.30;;
7340;SDS011;6870;50.944;6.932;2022-08-19T10:06:04;14.30;;;11.40;;
7340;SDS011;6870;50.944;6.932;2022-08-19T10:08:44;10.93;;;9.93;;
7340;SDS011;6870;50.944;6.932;2022-08-19T10:11:16;14.77;;;10.70;;
7340;SDS011;6870;50.944;6.932;2022-08-19T10:14:00;11.73;;;10.53;;
7340;SDS011;6870;50.944;6.932;2022-08-19T10:16:29;11.83;;;10.50;;
7340;SDS011;6870;50.944;6.932;2022-08-19T10:19:04;10.10;;;9.17;;
7340;SDS011;6870;50.944;6.932;2022-08-19T10:21:32;10.33;;;8.97;;
7340;SDS011;6870;50.944;6.932;2022-08-19T10:24:03;11.27;;;9.93;;
7340;SDS011;6870;50.944;6.932;2022-08-19T10:26:36;10.83;;;9.63;;
7340;SDS011;6870;50.944;6.932;2022-08-19T10:29:08;17.93;;;9.37;;
7340;SDS011;6870;50.944;6.932;2022-08-19T10:31:36;11.07;;;9.93;;
7340;SDS011;6870;50.944;6.932;2022-08-19T10:34:24;11.73;;;8.50;;
7340;SDS011;6870;50.944;6.932;2022-08-19T10:36:54;10.00;;;8.83;;
7340;SDS011;6870;50.944;6.932;2022-08-19T10:39:28;8.83;;;8.03;;
7340;SDS011;6870;50.944;6.932;2022-08-19T10:42:09;11.07;;;9.50;;
7340;SDS011;6870;50.944;6.932;2022-08-19T10:44:39;11.80;;;10.20;;
7340;SDS011;6870;50.944;6.932;2022-08-19T10:47:08;10.47;;;9.47;;
7340;SDS011;6870;50.944;6.932;2022-08-19T10:49:50;12.70;;;11.50;;
7340;SDS011;6870;50.944;6.932;2022-08-19T10:52:37;14.20;;;11.13;;
7340;SDS011;6870;50.944;6.932;2022-08-19T10:55:17;9.83;;;8.83;;
7340;SDS011;6870;50.944;6.932;2022-08-19T10:58:10;9.90;;;8.87;;
7340;SDS011;6870;50.944;6.932;2022-08-19T11:00:39;12.63;;;10.80;;
7340;SDS011;6870;50.944;6.932;2022-08-19T11:03:08;12.40;;;11.07;;
7340;SDS011;6870;50.944;6.932;2022-08-19T11:05:37;15.33;;;12.67;;
7340;SDS011;6870;50.944;6.932;2022-08-19T11:08:06;9.90;;;8.90;;
7340;SDS011;6870;50.944;6.932;2022-08-19T11:10:50;12.23;;;10.17;;
7340;SDS011;6870;50.944;6.932;2022-08-19T11:13:24;15.00;;;10.43;;
7340;SDS011;6870;50.944;6.932;2022-08-19T11:15:56;10.70;;;9.40;;
7340;SDS011;6870;50.944;6.932;2022-08-19T11:18:32;8.50;;;7.80;;
7340;SDS011;6870;50.944;6.932;2022-08-19T11:21:07;9.57;;;8.77;;
7340;SDS011;6870;50.944;6.932;2022-08-19T11:23:38;9.53;;;8.63;;
7340;SDS011;6870;50.944;6.932;2022-08-19T11:26:08;9.77;;;8.77;;
7340;SDS011;6870;50.944;6.932;2022-08-19T11:28:37;9.13;;;8.30;;
7340;SDS011;6870;50.944;6.932;2022-08-19T11:31:09;9.27;;;8.40;;
7340;SDS011;6870;50.944;6.932;2022-08-19T11:33:39;9.97;;;8.87;;
7340;SDS011;6870;50.944;6.932;2022-08-19T11:36:13;8.90;;;8.10;;
7340;SDS011;6870;50.944;6.932;2022-08-19T11:38:42;12.00;;;9.20;;
7340;SDS011;6870;50.944;6.932;2022-08-19T11:41:12;8.80;;;8.00;;
7340;SDS011;6870;50.944;6.932;2022-08-19T11:43:40;7.80;;;7.10;;
7340;SDS011;6870;50.944;6.932;2022-08-19T11:46:10;8.33;;;7.53;;
7340;SDS011;6870;50.944;6.932;2022-08-19T11:48:41;9.60;;;6.80;;
7340;SDS011;6870;50.944;6.932;2022-08-19T11:51:10;7.87;;;7.17;;
7340;SDS011;6870;50.944;6.932;2022-08-19T11:53:48;9.13;;;7.80;;
7340;SDS011;6870;50.944;6.932;2022-08-19T11:56:18;8.73;;;8.03;;
7340;SDS011;6870;50.944;6.932;2022-08-19T11:58:48;10.10;;;8.10;;
7340;SDS011;6870;50.944;6.932;2022-08-19T12:01:17;7.40;;;6.70;;
7340;SDS011;6870;50.944;6.932;2022-08-19T12:03:47;10.87;;;8.43;;
7340;SDS011;6870;50.944;6.932;2022-08-19T12:06:19;10.43;;;8.07;;
7340;SDS011;6870;50.944;6.932;2022-08-19T12:08:51;7.80;;;7.20;;
7340;SDS011;6870;50.944;6.932;2022-08-19T12:11:21;7.50;;;6.80;;
7340;SDS011;6870;50.944;6.932;2022-08-19T12:13:50;7.93;;;6.90;;
7340;SDS011;6870;50.944;6.932;2022-08-19T12:16:21;9.00;;;7.27;;
7340;SDS011;6870;50.944;6.932;2022-08-19T12:18:53;7.60;;;6.90;;
7340;SDS011;6870;50.944;6.932;2022-08-19T12:21:24;8.17;;;7.47;;
7340;SDS011;6870;50.944;6.932;2022-08-19T12:23:55;7.30;;;6.60;;
7340;SDS011;6870;50.944;6.932;2022-08-19T12:26:27;8.00;;;7.30;;
7340;SDS011;6870;50.944;6.932;2022-08-19T12:28:57;8.33;;;7.63;;
7340;SDS011;6870;50.944;6.932;2022-08-19T12:31:26;8.13;;;7.10;;
7340;SDS011;6870;50.944;6.932;2022-08-19T12:33:55;7.27;;;6.60;;
7340;SDS011;6870;50.944;6.932;2022-08-19T12:36:23;8.13;;;7.30;;
7340;SDS011;6870;50.944;6.932;2022-08-19T12:38:52;6.90;;;6.17;;
7340;SDS011;6870;50.944;6.932;2022-08-19T12:41:20;7.20;;;6.40;;
7340;SDS011;6870;50.944;6.932;2022-08-19T12:43:50;7.70;;;7.03;;
7340;SDS011;6870;50.944;6.932;2022-08-19T12:46:19;10.20;;;7.47;;
7340;SDS011;6870;50.944;6.932;2022-08-19T12:48:50;10.83;;;7.03;;
7340;SDS011;6870;50.944;6.932;2022-08-19T12:51:21;8.47;;;7.30;;
7340;SDS011;6870;50.944;6.932;2022-08-19T12:53:49;9.93;;;7.50;;
7340;SDS011;6870;50.944;6.932;2022-08-19T12:56:17;9.53;;;7.10;;
7340;SDS011;6870;50.944;6.932;2022-08-19T12:58:48;7.37;;;6.57;;
7340;SDS011;6870;50.944;6.932;2022-08-19T13:01:18;7.50;;;6.80;;
7340;SDS011;6870;50.944;6.932;2022-08-19T13:03:48;8.03;;;6.17;;
7340;SDS011;6870;50.944;6.932;2022-08-19T13:06:18;6.37;;;5.97;;
7340;SDS011;6870;50.944;6.932;2022-08-19T13:08:47;7.20;;;6.33;;
7340;SDS011;6870;50.944;6.932;2022-08-19T13:11:16;8.27;;;6.60;;
7340;SDS011;6870;50.944;6.932;2022-08-19T13:13:47;7.53;;;6.60;;
7340;SDS011;6870;50.944;6.932;2022-08-19T13:16:18;6.60;;;6.00;;
7340;SDS011;6870;50.944;6.932;2022-08-19T13:18:48;6.70;;;6.20;;
7340;SDS011;6870;50.944;6.932;2022-08-19T13:21:17;7.57;;;6.97;;
7340;SDS011;6870;50.944;6.932;2022-08-19T13:23:48;7.23;;;6.63;;
7340;SDS011;6870;50.944;6.932;2022-08-19T13:26:17;7.23;;;6.50;;
7340;SDS011;6870;50.944;6.932;2022-08-19T13:28:46;6.50;;;5.90;;
7340;SDS011;6870;50.944;6.932;2022-08-19T13:31:33;9.07;;;6.63;;
7340;SDS011;6870;50.944;6.932;2022-08-19T13:34:25;6.53;;;5.93;;
7340;SDS011;6870;50.944;6.932;2022-08-19T13:36:58;6.73;;;6.23;;
7340;SDS011;6870;50.944;6.932;2022-08-19T13:39:29;7.27;;;6.40;;
7340;SDS011;6870;50.944;6.932;2022-08-19T13:41:58;7.43;;;6.40;;
7340;SDS011;6870;50.944;6.932;2022-08-19T13:44:27;9.03;;;6.87;;
7340;SDS011;6870;50.944;6.932;2022-08-19T13:47:00;6.83;;;6.23;;
7340;SDS011;6870;50.944;6.932;2022-08-19T13:49:33;7.53;;;6.07;;
7340;SDS011;6870;50.944;6.932;2022-08-19T13:52:03;10.03;;;7.70;;
7340;SDS011;6870;50.944;6.932;2022-08-19T13:54:32;15.00;;;9.90;;
7340;SDS011;6870;50.944;6.932;2022-08-19T13:57:00;25.80;;;11.80;;
7340;SDS011;6870;50.944;6.932;2022-08-19T13:59:28;30.00;;;13.10;;
7340;SDS011;6870;50.944;6.932;2022-08-19T14:01:57;21.13;;;11.90;;
7340;SDS011;6870;50.944;6.932;2022-08-19T14:04:27;22.50;;;11.20;;
7340;SDS011;6870;50.944;6.932;2022-08-19T14:06:55;27.00;;;11.30;;
7340;SDS011;6870;50.944;6.932;2022-08-19T14:09:23;15.23;;;9.70;;
7340;SDS011;6870;50.944;6.932;2022-08-19T14:11:51;20.80;;;10.00;;
7340;SDS011;6870;50.944;6.932;2022-08-19T14:14:20;15.57;;;9.43;;
7340;SDS011;6870;50.944;6.932;2022-08-19T14:16:48;12.83;;;8.40;;
7340;SDS011;6870;50.944;6.932;2022-08-19T14:19:18;14.57;;;8.10;;
7340;SDS011;6870;50.944;6.932;2022-08-19T14:21:47;17.97;;;8.97;;
7340;SDS011;6870;50.944;6.932;2022-08-19T14:24:16;21.13;;;8.60;;
7340;SDS011;6870;50.944;6.932;2022-08-19T14:26:44;13.70;;;8.03;;
7340;SDS011;6870;50.944;6.932;2022-08-19T14:29:12;15.07;;;8.20;;
7340;SDS011;6870;50.944;6.932;2022-08-19T14:31:40;11.00;;;7.90;;
7340;SDS011;6870;50.944;6.932;2022-08-19T14:34:10;13.97;;;8.70;;
7340;SDS011;6870;50.944;6.932;2022-08-19T14:36:38;13.30;;;8.47;;
7340;SDS011;6870;50.944;6.932;2022-08-19T14:39:09;15.97;;;7.80;;
7340;SDS011;6870;50.944;6.932;2022-08-19T14:41:39;11.97;;;8.17;;
7340;SDS011;6870;50.944;6.932;2022-08-19T14:44:08;13.80;;;7.50;;
7340;SDS011;6870;50.944;6.932;2022-08-19T14:46:38;10.10;;;7.50;;
7340;SDS011;6870;50.944;6.932;2022-08-19T14:49:14;8.70;;;6.23;;
7340;SDS011;6870;50.944;6.932;2022-08-19T14:51:44;7.30;;;6.57;;
7340;SDS011;6870;50.944;6.932;2022-08-19T14:54:14;7.67;;;6.20;;
7340;SDS011;6870;50.944;6.932;2022-08-19T14:56:42;9.53;;;7.13;;
7340;SDS011;6870;50.944;6.932;2022-08-19T14:59:10;8.03;;;6.57;;
7340;SDS011;6870;50.944;6.932;2022-08-19T15:01:38;9.73;;;6.43;;
7340;SDS011;6870;50.944;6.932;2022-08-19T15:04:07;11.40;;;6.33;;
7340;SDS011;6870;50.944;6.932;2022-08-19T15:06:35;10.33;;;6.47;;
7340;SDS011;6870;50.944;6.932;2022-08-19T15:09:04;8.10;;;6.53;;
7340;SDS011;6870;50.944;6.932;2022-08-19T15:11:34;9.70;;;6.10;;
7340;SDS011;6870;50.944;6.932;2022-08-19T15:14:03;9.03;;;6.27;;
7340;SDS011;6870;50.944;6.932;2022-08-19T15:16:31;9.83;;;7.00;;
7340;SDS011;6870;50.944;6.932;2022-08-19T15:19:00;6.63;;;5.93;;
7340;SDS011;6870;50.944;6.932;2022-08-19T15:21:28;7.13;;;5.87;;
7340;SDS011;6870;50.944;6.932;2022-08-19T15:23:57;7.40;;;5.87;;
7340;SDS011;6870;50.944;6.932;2022-08-19T15:26:27;6.70;;;5.77;;
7340;SDS011;6870;50.944;6.932;2022-08-19T15:28:59;6.63;;;5.27;;
7340;SDS011;6870;50.944;6.932;2022-08-19T15:31:29;7.27;;;5.87;;
7340;SDS011;6870;50.944;6.932;2022-08-19T15:34:03;7.53;;;6.80;;